createdAt,value
2022-11-20T00:00:47.463Z,101346.75
2022-11-20T00:03:14.133Z,101349.50
2022-11-20T00:05:40.553Z,101348.00
2022-11-20T00:08:06.989Z,101352.25
2022-11-20T00:10:33.465Z,101349.84
2022-11-20T00:12:59.780Z,101348.16
2022-11-20T00:15:26.162Z,101337.09
2022-11-20T00:17:52.479Z,101331.94
2022-11-20T00:20:18.809Z,101335.41
2022-11-20T00:22:45.149Z,101325.16
2022-11-20T00:25:12.261Z,101320.22
2022-11-20T00:27:38.606Z,101319.59
2022-11-20T00:30:05.937Z,101313.59
2022-11-20T00:32:32.388Z,101318.03
2022-11-20T00:34:58.711Z,101312.00
2022-11-20T00:37:25.087Z,101314.63
2022-11-20T00:39:51.417Z,101319.78
2022-11-20T00:42:17.776Z,101324.75
2022-11-20T00:44:44.176Z,101319.66
2022-11-20T00:47:10.547Z,101330.03
2022-11-20T00:49:36.969Z,101329.25
2022-11-20T00:52:03.365Z,101325.09
2022-11-20T00:54:29.707Z,101315.75
2022-11-20T00:56:56.268Z,101315.09
2022-11-20T00:59:22.901Z,101314.91
2022-11-20T01:01:49.551Z,101315.75
2022-11-20T01:04:15.885Z,101314.09
2022-11-20T01:06:42.522Z,101328.75
2022-11-20T01:09:13.976Z,101323.47
2022-11-20T01:11:43.173Z,101327.75
2022-11-20T01:14:16.835Z,101307.25
2022-11-20T01:16:46.669Z,101313.38
2022-11-20T01:19:17.922Z,101302.44
2022-11-20T01:21:46.150Z,101309.56
2022-11-20T01:24:15.259Z,101301.00
2022-11-20T01:26:43.857Z,101296.22
2022-11-20T01:29:15.717Z,101294.38
2022-11-20T01:31:42.914Z,101296.03
2022-11-20T01:34:20.317Z,101291.00
2022-11-20T01:36:47.209Z,101294.59
2022-11-20T01:39:16.822Z,101289.22
2022-11-20T01:42:07.061Z,101280.00
2022-11-20T01:44:54.665Z,101287.28
2022-11-20T01:47:38.110Z,101285.63
2022-11-20T01:50:12.719Z,101283.06
2022-11-20T01:52:43.841Z,101282.03
2022-11-20T01:55:15.808Z,101278.75
2022-11-20T01:57:42.789Z,101281.44
2022-11-20T02:00:17.676Z,101290.03
2022-11-20T02:02:49.236Z,101285.91
2022-11-20T02:05:33.644Z,101291.66
2022-11-20T02:08:00.798Z,101289.25
2022-11-20T02:10:29.010Z,101291.75
2022-11-20T02:13:14.030Z,101290.47
2022-11-20T02:15:41.308Z,101287.75
2022-11-20T02:18:08.713Z,101283.66
2022-11-20T02:20:35.129Z,101287.22
2022-11-20T02:23:17.937Z,101283.66
2022-11-20T02:25:45.992Z,101284.69
2022-11-20T02:28:12.409Z,101284.03
2022-11-20T02:30:38.754Z,101279.00
2022-11-20T02:33:05.188Z,101267.03
2022-11-20T02:35:31.762Z,101271.44
2022-11-20T02:38:01.431Z,101262.19
2022-11-20T02:40:28.098Z,101271.78
2022-11-20T02:42:56.105Z,101274.16
2022-11-20T02:45:23.756Z,101269.22
2022-11-20T02:47:50.488Z,101265.13
2022-11-20T02:50:17.029Z,101268.69
2022-11-20T02:52:43.746Z,101266.91
2022-11-20T02:55:10.350Z,101266.03
2022-11-20T02:57:36.742Z,101262.44
2022-11-20T03:00:05.324Z,101261.44
2022-11-20T03:02:32.651Z,101244.59
2022-11-20T03:04:59.251Z,101259.94
2022-11-20T03:07:25.968Z,101254.09
2022-11-20T03:09:52.335Z,101250.69
2022-11-20T03:12:18.866Z,101260.03
2022-11-20T03:14:48.885Z,101247.56
2022-11-20T03:17:18.118Z,101243.16
2022-11-20T03:19:44.475Z,101241.66
2022-11-20T03:22:10.816Z,101237.50
2022-11-20T03:24:37.177Z,101243.47
2022-11-20T03:27:03.648Z,101239.97
2022-11-20T03:29:30.000Z,101233.25
2022-11-20T03:31:56.403Z,101232.41
2022-11-20T03:34:22.854Z,101223.16
2022-11-20T03:36:49.231Z,101231.78
2022-11-20T03:39:15.625Z,101227.56
2022-11-20T03:41:43.056Z,101233.38
2022-11-20T03:44:12.034Z,101241.88
2022-11-20T03:46:38.951Z,101245.38
2022-11-20T03:49:05.952Z,101241.88
2022-11-20T03:51:35.063Z,101239.13
2022-11-20T03:54:04.463Z,101218.75
2022-11-20T03:56:33.458Z,101228.13
2022-11-20T03:58:59.882Z,101224.03
2022-11-20T04:01:29.094Z,101223.97
2022-11-20T04:03:57.283Z,101221.44
2022-11-20T04:06:31.729Z,101224.06
2022-11-20T04:08:59.030Z,101228.44
2022-11-20T04:11:29.681Z,101221.69
2022-11-20T04:14:02.045Z,101213.31
2022-11-20T04:16:31.064Z,101222.06
2022-11-20T04:18:59.578Z,101224.69
2022-11-20T04:21:26.647Z,101211.84
2022-11-20T04:23:53.852Z,101211.19
2022-11-20T04:26:21.802Z,101217.84
2022-11-20T04:28:48.195Z,101218.75
2022-11-20T04:31:17.785Z,101229.81
2022-11-20T04:33:45.242Z,101217.03
2022-11-20T04:36:20.171Z,101219.84
2022-11-20T04:38:49.474Z,101216.47
2022-11-20T04:41:21.430Z,101210.41
2022-11-20T04:43:52.760Z,101215.69
2022-11-20T04:46:20.552Z,101214.72
2022-11-20T04:48:48.222Z,101217.34
2022-11-20T04:51:14.805Z,101218.34
2022-11-20T04:53:41.275Z,101208.06
2022-11-20T04:56:09.305Z,101211.50
2022-11-20T04:58:35.944Z,101210.75
2022-11-20T05:01:05.033Z,101207.22
2022-11-20T05:03:31.867Z,101198.84
2022-11-20T05:06:02.270Z,101201.31
2022-11-20T05:08:29.537Z,101193.66
2022-11-20T05:11:04.328Z,101187.72
2022-11-20T05:13:30.997Z,101186.94
2022-11-20T05:16:02.667Z,101184.38
2022-11-20T05:18:29.260Z,101187.16
2022-11-20T05:20:59.111Z,101184.56
2022-11-20T05:23:26.332Z,101178.75
2022-11-20T05:25:58.881Z,101173.63
2022-11-20T05:28:27.294Z,101171.19
2022-11-20T05:30:53.832Z,101167.75
2022-11-20T05:33:20.417Z,101175.66
2022-11-20T05:35:46.960Z,101188.59
2022-11-20T05:38:13.386Z,101180.19
2022-11-20T05:40:39.826Z,101176.03
2022-11-20T05:43:06.245Z,101174.31
2022-11-20T05:45:32.662Z,101167.50
2022-11-20T05:48:03.407Z,101166.53
2022-11-20T05:50:29.824Z,101164.88
2022-11-20T05:52:58.541Z,101167.41
2022-11-20T05:55:24.874Z,101167.41
2022-11-20T05:57:51.704Z,101169.13
2022-11-20T06:00:18.382Z,101174.44
2022-11-20T06:02:44.806Z,101169.22
2022-11-20T06:05:11.175Z,101171.00
2022-11-20T06:07:37.583Z,101171.88
2022-11-20T06:10:04.203Z,101177.66
2022-11-20T06:12:32.687Z,101173.31
2022-11-20T06:14:59.321Z,101173.44
2022-11-20T06:17:25.694Z,101186.19
2022-11-20T06:19:52.068Z,101193.81
2022-11-20T06:22:18.401Z,101195.53
2022-11-20T06:24:44.782Z,101194.75
2022-11-20T06:27:11.090Z,101201.81
2022-11-20T06:29:37.464Z,101201.59
2022-11-20T06:32:03.940Z,101206.59
2022-11-20T06:34:30.339Z,101200.69
2022-11-20T06:36:57.366Z,101206.69
2022-11-20T06:39:24.079Z,101196.53
2022-11-20T06:41:53.287Z,101204.03
2022-11-20T06:44:23.685Z,101201.59
2022-11-20T06:46:50.057Z,101203.38
2022-11-20T06:49:16.391Z,101210.22
2022-11-20T06:51:42.769Z,101207.72
2022-11-20T06:54:09.171Z,101211.25
2022-11-20T06:56:35.538Z,101208.69
2022-11-20T06:59:06.836Z,101206.06
2022-11-20T07:01:33.248Z,101210.28
2022-11-20T07:03:59.607Z,101204.41
2022-11-20T07:06:26.030Z,101212.97
2022-11-20T07:08:53.551Z,101206.09
2022-11-20T07:11:20.015Z,101206.97
2022-11-20T07:13:46.660Z,101206.19
2022-11-20T07:16:13.104Z,101208.84
2022-11-20T07:18:39.554Z,101209.66
2022-11-20T07:21:08.693Z,101208.84
2022-11-20T07:23:35.333Z,101197.81
2022-11-20T07:26:09.582Z,101200.88
2022-11-20T07:28:36.501Z,101193.22
2022-11-20T07:31:03.662Z,101189.72
2022-11-20T07:33:30.103Z,101184.88
2022-11-20T07:35:56.536Z,101183.00
2022-11-20T07:38:22.881Z,101189.00
2022-11-20T07:40:49.915Z,101185.50
2022-11-20T07:43:16.381Z,101181.13
2022-11-20T07:45:42.722Z,101173.38
2022-11-20T07:48:09.104Z,101164.78
2022-11-20T07:50:35.568Z,101161.25
2022-11-20T07:53:05.971Z,101179.97
2022-11-20T07:55:33.192Z,101175.53
2022-11-20T07:58:00.168Z,101171.22
2022-11-20T08:00:27.683Z,101172.75
2022-11-20T08:02:54.336Z,101175.09
2022-11-20T08:05:21.416Z,101169.75
2022-11-20T08:07:47.846Z,101179.97
2022-11-20T08:10:16.857Z,101184.03
2022-11-20T08:13:06.971Z,101176.19
2022-11-20T08:15:33.444Z,101185.38
2022-11-20T08:18:29.407Z,101194.38
2022-11-20T08:20:50.928Z,101185.66
2022-11-20T08:23:17.326Z,101193.97
2022-11-20T08:25:43.659Z,101192.13
2022-11-20T08:28:20.194Z,101190.06
2022-11-20T08:30:47.032Z,101190.59
2022-11-20T08:33:13.353Z,101187.81
2022-11-20T08:35:39.984Z,101179.03
2022-11-20T08:38:06.870Z,101176.88
2022-11-20T08:40:33.881Z,101180.97
2022-11-20T08:43:00.443Z,101178.97
2022-11-20T08:45:32.402Z,101173.91
2022-11-20T08:48:04.326Z,101175.03
2022-11-20T08:50:32.982Z,101180.00
2022-11-20T08:53:06.291Z,101170.19
2022-11-20T08:55:33.032Z,101157.13
2022-11-20T08:57:59.448Z,101159.44
2022-11-20T09:00:25.830Z,101165.16
2022-11-20T09:02:53.145Z,101164.81
2022-11-20T09:05:19.558Z,101161.25
2022-11-20T09:07:46.054Z,101157.31
2022-11-20T09:10:27.868Z,101151.47
2022-11-20T09:12:55.984Z,101140.50
2022-11-20T09:15:23.561Z,101138.69
2022-11-20T09:17:57.925Z,101135.31
2022-11-20T09:20:24.749Z,101131.94
2022-11-20T09:22:51.337Z,101140.13
2022-11-20T09:25:18.267Z,101131.13
2022-11-20T09:27:46.698Z,101126.47
2022-11-20T09:30:14.605Z,101125.00
2022-11-20T09:32:41.304Z,101131.00
2022-11-20T09:35:08.157Z,101126.53
2022-11-20T09:37:34.771Z,101126.34
2022-11-20T09:40:01.103Z,101121.72
2022-11-20T09:42:38.638Z,101122.69
2022-11-20T09:45:19.671Z,101120.66
2022-11-20T09:48:16.718Z,101131.44
2022-11-20T09:51:31.309Z,101122.41
2022-11-20T09:54:23.897Z,101118.88
2022-11-20T09:57:00.865Z,101122.50
2022-11-20T09:59:34.685Z,101122.44
2022-11-20T10:02:03.447Z,101119.19
2022-11-20T10:04:35.538Z,101111.75
2022-11-20T10:07:33.439Z,101097.72
2022-11-20T10:10:00.533Z,101099.16
2022-11-20T10:13:01.434Z,101101.19
2022-11-20T10:15:39.879Z,101088.88
2022-11-20T10:18:38.518Z,101088.88
2022-11-20T10:21:11.469Z,101083.00
2022-11-20T10:24:15.589Z,101088.44
2022-11-20T10:26:55.993Z,101079.59
2022-11-20T10:29:35.328Z,101068.59
2022-11-20T10:32:05.448Z,101056.28
2022-11-20T10:34:34.558Z,101057.88
2022-11-20T10:37:12.765Z,101060.03
2022-11-20T10:39:51.035Z,101062.28
2022-11-20T10:42:29.939Z,101058.94
2022-11-20T10:45:12.283Z,101062.53
2022-11-20T10:47:38.663Z,101058.03
2022-11-20T10:50:10.610Z,101050.44
2022-11-20T10:53:06.057Z,101053.22
2022-11-20T10:55:47.966Z,101040.50
2022-11-20T10:58:36.811Z,101039.25
2022-11-20T11:01:14.374Z,101024.75
2022-11-20T11:03:43.867Z,101034.50
2022-11-20T11:06:33.709Z,101018.22
2022-11-20T11:09:05.028Z,101016.22
2022-11-20T11:11:34.119Z,101014.88
2022-11-20T11:14:06.647Z,101002.59
2022-11-20T11:16:33.105Z,101004.81
2022-11-20T11:19:14.571Z,101003.69
2022-11-20T11:21:53.828Z,100996.78
2022-11-20T11:24:41.720Z,100993.91
2022-11-20T11:27:17.378Z,100989.59
2022-11-20T11:29:44.879Z,100980.72
2022-11-20T11:32:29.472Z,100971.19
2022-11-20T11:35:07.361Z,100963.50
2022-11-20T11:37:37.246Z,100968.13
2022-11-20T11:42:57.596Z,100951.56
2022-11-20T11:45:24.672Z,100946.28
2022-11-20T11:47:53.253Z,100940.16
2022-11-20T11:50:21.640Z,100924.03
2022-11-20T11:53:18.766Z,100927.28
2022-11-20T11:55:50.297Z,100929.88
2022-11-20T11:58:42.856Z,100926.31
2022-11-20T12:01:34.198Z,100922.63
2022-11-20T12:04:15.832Z,100919.09
2022-11-20T12:06:46.344Z,100911.31
2022-11-20T12:09:13.166Z,100914.09
2022-11-20T12:11:57.297Z,100906.44
2022-11-20T12:14:35.149Z,100908.31
2022-11-20T12:17:02.784Z,100910.69
2022-11-20T12:19:34.858Z,100905.50
2022-11-20T12:22:30.187Z,100896.16
2022-11-20T12:24:59.148Z,100884.97
2022-11-20T12:27:43.812Z,100879.09
2022-11-20T12:30:21.253Z,100875.69
2022-11-20T12:33:00.433Z,100871.84
2022-11-20T12:35:32.540Z,100875.59
2022-11-20T12:38:21.435Z,100869.41
2022-11-20T12:41:03.239Z,100862.22
2022-11-20T12:43:57.155Z,100849.97
2022-11-20T12:46:41.571Z,100854.66
2022-11-20T12:49:26.265Z,100850.22
2022-11-20T12:52:17.541Z,100842.03
2022-11-20T12:55:08.168Z,100842.25
2022-11-20T12:57:54.698Z,100840.56
2022-11-20T13:00:23.349Z,100840.06
2022-11-20T13:03:25.239Z,100828.97
2022-11-20T13:06:19.436Z,100828.97
2022-11-20T13:08:55.437Z,100831.97
2022-11-20T13:11:32.332Z,100835.69
2022-11-20T13:14:11.989Z,100834.88
2022-11-20T13:16:56.574Z,100824.28
2022-11-20T13:19:23.290Z,100807.88
2022-11-20T13:21:51.484Z,100801.16
2022-11-20T13:24:21.112Z,100789.97
2022-11-20T13:26:48.102Z,100780.81
2022-11-20T13:29:19.558Z,100765.75
2022-11-20T13:31:49.606Z,100755.28
2022-11-20T13:34:26.995Z,100751.84
2022-11-20T13:36:57.089Z,100758.28
2022-11-20T13:39:34.158Z,100745.13
2022-11-20T13:42:25.821Z,100747.81
2022-11-20T13:44:55.893Z,100740.25
2022-11-20T13:47:25.151Z,100736.59
2022-11-20T13:49:54.115Z,100734.09
2022-11-20T13:52:38.308Z,100723.72
2022-11-20T13:55:25.788Z,100726.22
2022-11-20T13:58:13.971Z,100737.22
2022-11-20T14:01:14.378Z,100726.75
2022-11-20T14:04:05.050Z,100719.91
2022-11-20T14:06:32.520Z,100708.91
2022-11-20T14:09:00.247Z,100702.88
2022-11-20T14:11:30.323Z,100689.09
2022-11-20T14:14:03.987Z,100684.72
2022-11-20T14:16:33.322Z,100680.06
2022-11-20T14:19:21.497Z,100676.84
2022-11-20T14:22:21.902Z,100674.88
2022-11-20T14:24:50.316Z,100671.66
2022-11-20T14:27:21.908Z,100663.97
2022-11-20T14:29:51.114Z,100653.69
2022-11-20T14:32:23.219Z,100653.69
2022-11-20T14:34:51.373Z,100647.78
2022-11-20T14:37:24.233Z,100649.44
2022-11-20T14:39:59.686Z,100667.72
2022-11-20T14:42:28.295Z,100671.84
2022-11-20T14:45:00.088Z,100658.16
2022-11-20T14:47:28.655Z,100640.09
2022-11-20T14:49:56.568Z,100635.75
2022-11-20T14:52:25.565Z,100620.06
2022-11-20T14:54:56.735Z,100608.56
2022-11-20T14:57:30.300Z,100609.91
2022-11-20T15:00:06.995Z,100611.56
2022-11-20T15:02:34.153Z,100604.63
2022-11-20T15:05:04.147Z,100593.63
2022-11-20T15:07:36.890Z,100596.72
2022-11-20T15:10:08.867Z,100594.84
2022-11-20T15:12:39.613Z,100593.19
2022-11-20T15:15:07.021Z,100587.81
2022-11-20T15:17:38.259Z,100582.28
2022-11-20T15:20:12.605Z,100572.53
2022-11-20T15:22:38.962Z,100566.63
2022-11-20T15:25:16.087Z,100569.78
2022-11-20T15:27:43.730Z,100565.59
2022-11-20T15:30:18.159Z,100573.06
2022-11-20T15:32:45.380Z,100569.66
2022-11-20T15:35:11.905Z,100561.53
2022-11-20T15:37:39.069Z,100561.53
2022-11-20T15:40:07.531Z,100563.41
2022-11-20T15:42:34.261Z,100570.25
2022-11-20T15:45:01.233Z,100563.19
2022-11-20T15:47:33.501Z,100570.03
2022-11-20T15:50:00.580Z,100561.63
2022-11-20T15:52:28.514Z,100554.91
2022-11-20T15:54:56.888Z,100551.25
2022-11-20T15:57:23.266Z,100550.09
2022-11-20T15:59:49.627Z,100550.34
2022-11-20T16:02:19.302Z,100531.84
2022-11-20T16:04:46.087Z,100531.31
2022-11-20T16:07:12.559Z,100534.16
2022-11-20T16:09:38.959Z,100527.91
2022-11-20T16:12:05.519Z,100521.19
2022-11-20T16:14:50.595Z,100506.00
2022-11-20T16:17:36.919Z,100509.41
2022-11-20T16:20:03.383Z,100503.19
2022-11-20T16:22:29.723Z,100490.31
2022-11-20T16:24:56.066Z,100478.06
2022-11-20T16:27:22.444Z,100463.94
2022-11-20T16:29:48.806Z,100464.16
2022-11-20T16:32:15.119Z,100456.03
2022-11-20T16:34:41.434Z,100452.13
2022-11-20T16:37:08.198Z,100456.03
2022-11-20T16:39:34.653Z,100444.44
2022-11-20T16:42:04.768Z,100438.22
2022-11-20T16:44:31.077Z,100430.13
2022-11-20T16:46:57.406Z,100425.81
2022-11-20T16:49:24.892Z,100420.63
2022-11-20T16:51:51.769Z,100412.84
2022-11-20T16:54:21.152Z,100410.34
2022-11-20T16:56:48.300Z,100408.22
2022-11-20T16:59:14.725Z,100401.28
2022-11-20T17:01:43.071Z,100390.06
2022-11-20T17:04:10.004Z,100389.25
2022-11-20T17:06:41.892Z,100386.78
2022-11-20T17:09:10.911Z,100383.59
2022-11-20T17:11:37.787Z,100372.28
2022-11-20T17:14:07.213Z,100373.34
2022-11-20T17:16:34.811Z,100373.34
2022-11-20T17:19:03.601Z,100366.72
2022-11-20T17:21:31.407Z,100361.31
2022-11-20T17:24:01.539Z,100352.69
2022-11-20T17:26:28.681Z,100348.69
2022-11-20T17:29:03.799Z,100341.97
2022-11-20T17:31:32.388Z,100338.66
2022-11-20T17:34:02.512Z,100340.44
2022-11-20T17:36:30.239Z,100342.06
2022-11-20T17:38:56.883Z,100332.88
2022-11-20T17:41:25.375Z,100336.88
2022-11-20T17:43:59.812Z,100333.38
2022-11-20T17:46:34.449Z,100332.56
2022-11-20T17:49:01.693Z,100329.94
2022-11-20T17:51:30.849Z,100318.88
2022-11-20T17:54:02.213Z,100327.59
2022-11-20T17:57:02.229Z,100322.53
2022-11-20T17:59:28.555Z,100321.31
2022-11-20T18:01:56.787Z,100319.91
2022-11-20T18:04:26.385Z,100315.06
2022-11-20T18:06:52.893Z,100309.78
2022-11-20T18:09:19.384Z,100309.97
2022-11-20T18:11:45.791Z,100301.38
2022-11-20T18:14:34.875Z,100305.28
2022-11-20T18:17:07.050Z,100298.44
2022-11-20T18:19:41.196Z,100298.94
2022-11-20T18:22:16.537Z,100298.94
2022-11-20T18:24:43.414Z,100299.97
2022-11-20T18:27:19.282Z,100299.75
2022-11-20T18:29:48.589Z,100296.53
2022-11-20T18:32:14.971Z,100289.00
2022-11-20T18:34:41.333Z,100288.75
2022-11-20T18:37:09.720Z,100289.25
2022-11-20T18:39:36.691Z,100293.97
2022-11-20T18:42:21.917Z,100297.16
2022-11-20T18:44:54.960Z,100295.28
2022-11-20T18:47:30.754Z,100294.22
2022-11-20T18:50:01.555Z,100299.06
2022-11-20T18:52:30.915Z,100310.50
2022-11-20T18:54:57.467Z,100302.00
2022-11-20T18:57:26.334Z,100302.00
2022-11-20T19:00:02.139Z,100302.13
2022-11-20T19:02:37.928Z,100298.00
2022-11-20T19:05:08.009Z,100300.59
2022-11-20T19:07:34.440Z,100304.84
2022-11-20T19:10:03.638Z,100306.72
2022-11-20T19:12:30.676Z,100303.28
2022-11-20T19:14:57.083Z,100311.06
2022-11-20T19:17:23.795Z,100310.03
2022-11-20T19:19:50.370Z,100317.34
2022-11-20T19:22:16.780Z,100318.53
2022-11-20T19:24:43.175Z,100329.72
2022-11-20T19:27:09.574Z,100326.31
2022-11-20T19:29:36.062Z,100330.81
2022-11-20T19:32:04.385Z,100333.59
2022-11-20T19:34:30.880Z,100332.44
2022-11-20T19:37:00.800Z,100340.13
2022-11-20T19:39:27.432Z,100339.88
2022-11-20T19:41:53.983Z,100337.50
2022-11-20T19:44:20.468Z,100330.81
2022-11-20T19:46:46.893Z,100327.25
2022-11-20T19:49:14.687Z,100329.72
2022-11-20T19:51:46.770Z,100338.13
2022-11-20T19:54:13.896Z,100336.69
2022-11-20T19:56:40.406Z,100331.72
2022-11-20T19:59:06.801Z,100333.38
2022-11-20T20:01:33.393Z,100334.22
2022-11-20T20:04:05.311Z,100318.38
2022-11-20T20:06:34.043Z,100310.59
2022-11-20T20:09:08.779Z,100317.94
2022-11-20T20:11:35.705Z,100339.38
2022-11-20T20:14:07.070Z,100335.59
2022-11-20T20:16:34.379Z,100339.88
2022-11-20T20:19:03.609Z,100331.84
2022-11-20T20:21:31.450Z,100347.28
2022-11-20T20:24:00.068Z,100354.25
2022-11-20T20:26:28.587Z,100359.22
2022-11-20T20:28:55.185Z,100363.78
2022-11-20T20:31:24.036Z,100369.44
2022-11-20T20:33:50.649Z,100367.00
2022-11-20T20:36:18.801Z,100365.22
2022-11-20T20:38:46.449Z,100379.59
2022-11-20T20:41:19.437Z,100381.84
2022-11-20T20:44:04.486Z,100382.09
2022-11-20T20:46:30.904Z,100390.00
2022-11-20T20:48:57.354Z,100388.31
2022-11-20T20:51:24.005Z,100407.22
2022-11-20T20:53:50.645Z,100403.78
2022-11-20T20:56:18.017Z,100402.84
2022-11-20T20:58:44.705Z,100410.75
2022-11-20T21:01:17.514Z,100409.81
2022-11-20T21:03:44.285Z,100401.28
2022-11-20T21:06:11.818Z,100406.16
2022-11-20T21:08:41.156Z,100405.91
2022-11-20T21:11:11.511Z,100405.09
2022-11-20T21:13:39.062Z,100410.41
2022-11-20T21:16:07.061Z,100401.59
2022-11-20T21:18:34.050Z,100402.28
2022-11-20T21:21:22.290Z,100411.81
2022-11-20T21:23:48.723Z,100422.00
2022-11-20T21:26:16.143Z,100416.69
2022-11-20T21:28:42.765Z,100417.72
2022-11-20T21:31:15.377Z,100418.13
2022-11-20T21:33:44.021Z,100420.72
2022-11-20T21:36:21.455Z,100419.03
2022-11-20T21:38:48.632Z,100431.91
2022-11-20T21:41:15.837Z,100425.09
2022-11-20T21:43:42.957Z,100427.69
2022-11-20T21:46:11.679Z,100428.59
2022-11-20T21:48:39.757Z,100428.38
2022-11-20T21:51:13.139Z,100442.66
2022-11-20T21:53:40.055Z,100425.50
2022-11-20T21:56:08.747Z,100425.50
2022-11-20T21:58:36.318Z,100432.38
2022-11-20T22:01:09.394Z,100434.03
2022-11-20T22:03:36.978Z,100436.13
2022-11-20T22:06:04.199Z,100435.78
2022-11-20T22:08:30.968Z,100436.50
2022-11-20T22:10:59.789Z,100432.88
2022-11-20T22:13:44.889Z,100439.69
2022-11-20T22:16:11.688Z,100444.28
2022-11-20T22:18:45.858Z,100444.44
2022-11-20T22:21:13.320Z,100443.69
2022-11-20T22:23:39.989Z,100445.34
2022-11-20T22:26:15.264Z,100451.97
2022-11-20T22:28:41.716Z,100453.13
2022-11-20T22:31:11.789Z,100452.06
2022-11-20T22:33:39.255Z,100462.25
2022-11-20T22:36:08.563Z,100455.28
2022-11-20T22:38:39.360Z,100459.66
2022-11-20T22:41:13.713Z,100467.09
2022-11-20T22:43:41.302Z,100472.38
2022-11-20T22:46:11.870Z,100474.97
2022-11-20T22:48:40.758Z,100480.16
2022-11-20T22:51:10.044Z,100482.91
2022-11-20T22:53:37.001Z,100486.31
2022-11-20T22:56:06.634Z,100489.63
2022-11-20T22:58:33.849Z,100492.34
2022-11-20T23:01:23.546Z,100487.84
2022-11-20T23:03:52.238Z,100496.69
2022-11-20T23:06:19.536Z,100495.63
2022-11-20T23:08:46.763Z,100497.47
2022-11-20T23:11:32.264Z,100512.84
2022-11-20T23:14:01.583Z,100514.50
2022-11-20T23:16:29.466Z,100510.59
2022-11-20T23:18:57.602Z,100514.00
2022-11-20T23:21:24.801Z,100508.00
2022-11-20T23:23:55.737Z,100512.84
2022-11-20T23:26:24.713Z,100503.28
2022-11-20T23:28:53.758Z,100493.84
2022-11-20T23:31:20.493Z,100497.81
2022-11-20T23:33:46.848Z,100513.50
2022-11-20T23:36:13.927Z,100513.38
2022-11-20T23:38:40.990Z,100521.63
2022-11-20T23:41:07.989Z,100515.63
2022-11-20T23:43:35.044Z,100518.06
2022-11-20T23:46:02.525Z,100518.69
2022-11-20T23:48:34.874Z,100507.38
2022-11-20T23:51:01.513Z,100516.09
2022-11-20T23:53:28.716Z,100511.63
2022-11-20T23:55:58.136Z,100511.41
2022-11-20T23:58:26.578Z,100529.56
